Historique des mesures à Cassis (13260), France
Quotidien Résumé Juillet 21, 2021 Unités:  Métrique    US   Métrique/US
Quotidien Hebdomadaire Mensuel Annuel
  Maximum: Minimum: Moyenne:
Température: 13.8 °C 10.4 °C 12.2 °C
Point de rosée: 11.8 °C 8 °C 9.9 °C
Humidité: 90% 80% 86%
Vitesse du vent: 14km/h 0km/h 4.1km/h
Rafales: 18.7km/h - -
Vent- - WNW
Pression: 1016.4 hPa 1005.8 hPa -
Précipitations: 14.5 mm    
Historical Graphs
 
 
Mesures pour : Juillet 21, 2021
Heure Temperature Point de rosée Pression Vent Vitesse du vent Rafales Humidité Pluie (par heure)
00:10 10.7 °C 8.4 °C 1016.4 hPa NW 7.2 km/h 13 km/h 86% 0.0 mm
01:11 10.9 °C 8.5 °C 1015.8 hPa NW 14 km/h 18.4 km/h 85% 0.0 mm
02:10 10.4 °C 8 °C 1015.1 hPa WNW 9.4 km/h 9.7 km/h 85% 0.0 mm
03:11 10.9 °C 8.6 °C 1014.6 hPa WNW 14 km/h 14.4 km/h 86% 0.0 mm
04:10 11.8 °C 9.4 °C 1013.6 hPa NW 6.8 km/h 11.5 km/h 85% 0.0 mm
05:11 11.6 °C 8.8 °C 1012.8 hPa WNW 10.1 km/h 18.7 km/h 83% 0.0 mm
06:10 11.4 °C 8.6 °C 1012.4 hPa WNW 3.2 km/h 10.1 km/h 83% 0.0 mm
07:11 11.8 °C 8.8 °C 1011.8 hPa NNW 3.2 km/h 11.2 km/h 82% 0.0 mm
08:10 12.1 °C 9 °C 1011.5 hPa Calm   6.5 km/h 81% 0.0 mm
09:11 12.8 °C 9.6 °C 1011.2 hPa Calm   3.2 km/h 81% 0.0 mm
10:10 13.5 °C 10.1 °C 1011.1 hPa Calm     80% 0.0 mm
11:11 13.8 °C 10.9 °C 1010.7 hPa Calm     83% 0.0 mm
12:10 13.6 °C 11.3 °C 1010.0 hPa NW 4 km/h 7.2 km/h 86% 1.5 mm
13:11 12.7 °C 10.9 °C 1008.8 hPa WNW 4 km/h 9.7 km/h 89% 12.4 mm
14:10 13.1 °C 11.3 °C 1008.0 hPa Calm   4 km/h 89% 0.0 mm
15:11 13.6 °C 11.8 °C 1007.6 hPa Calm     89% 0.0 mm
16:10 13.6 °C 11.8 °C 1007.2 hPa Calm     89% 0.0 mm
17:11 13.3 °C 11.5 °C 1006.8 hPa Calm     89% 0.0 mm
18:10 12.9 °C 11.1 °C 1006.5 hPa Calm     89% 0.0 mm
19:11 12.4 °C 10.8 °C 1006.4 hPa Calm   4.7 km/h 90% 0.0 mm
20:10 12 °C 10.2 °C 1006.0 hPa WNW 7.2 km/h 12.2 km/h 89% 0.0 mm
21:11 11.4 °C 9.8 °C 1005.8 hPa NNW 8.3 km/h 9.7 km/h 90% 0.0 mm
22:10 10.9 °C 9.1 °C 1006.0 hPa North 1.8 km/h 6.1 km/h 89% 0.0 mm
23:11 10.8 °C 9.2 °C 1005.9 hPa NW 6.1 km/h 7.6 km/h 90% 0.0 mm
Observations météo à CASSIS
WU-History script by Weather Underground - 2 mb